createdAt,value
2023-04-20T00:01:58.936Z,9.00
2023-04-20T00:04:26.967Z,8.90
2023-04-20T00:06:59.494Z,8.90
2023-04-20T00:09:27.975Z,8.90
2023-04-20T00:11:56.394Z,9.00
2023-04-20T00:14:26.715Z,8.90
2023-04-20T00:17:03.947Z,8.90
2023-04-20T00:19:33.310Z,8.90
2023-04-20T00:22:02.750Z,8.90
2023-04-20T00:24:31.030Z,8.90
2023-04-20T00:27:01.647Z,8.90
2023-04-20T00:29:29.735Z,8.90
2023-04-20T00:31:57.803Z,8.90
2023-04-20T00:34:25.924Z,8.90
2023-04-20T00:36:54.008Z,8.90
2023-04-20T00:39:23.410Z,8.80
2023-04-20T00:41:51.540Z,8.90
2023-04-20T00:44:19.538Z,8.90
2023-04-20T00:46:47.632Z,8.90
2023-04-20T00:49:18.382Z,9.00
2023-04-20T00:51:46.709Z,9.00
2023-04-20T00:54:14.800Z,8.90
2023-04-20T00:56:44.258Z,8.90
2023-04-20T00:59:12.305Z,8.90
2023-04-20T01:01:40.315Z,8.90
2023-04-20T01:04:08.692Z,8.90
2023-04-20T01:06:36.874Z,9.00
2023-04-20T01:09:04.941Z,9.00
2023-04-20T01:11:33.137Z,9.00
2023-04-20T01:14:02.626Z,8.90
2023-04-20T01:16:33.612Z,8.90
2023-04-20T01:19:01.772Z,8.90
2023-04-20T01:21:31.853Z,8.90
2023-04-20T01:24:01.273Z,8.90
2023-04-20T01:26:29.378Z,8.90
2023-04-20T01:29:01.731Z,8.90
2023-04-20T01:31:29.750Z,8.90
2023-04-20T01:33:57.980Z,8.90
2023-04-20T01:36:27.050Z,8.90
2023-04-20T01:38:58.666Z,8.80
2023-04-20T01:41:28.702Z,8.80
2023-04-20T01:43:56.776Z,8.90
2023-04-20T01:46:25.768Z,8.90
2023-04-20T01:48:57.003Z,8.80
2023-04-20T01:51:27.891Z,8.80
2023-04-20T01:53:57.398Z,8.60
2023-04-20T01:56:25.541Z,8.60
2023-04-20T01:58:54.998Z,8.60
2023-04-20T02:01:23.121Z,8.70
2023-04-20T02:03:51.352Z,8.70
2023-04-20T02:06:19.510Z,8.60
2023-04-20T02:08:47.870Z,8.60
2023-04-20T02:11:15.921Z,8.60
2023-04-20T02:13:43.958Z,8.60
2023-04-20T02:16:13.369Z,8.50
2023-04-20T02:18:41.507Z,8.50
2023-04-20T02:21:09.595Z,8.40
2023-04-20T02:23:37.576Z,8.50
2023-04-20T02:26:05.598Z,8.50
2023-04-20T02:28:33.727Z,8.50
2023-04-20T02:31:02.075Z,8.30
2023-04-20T02:33:31.893Z,8.40
2023-04-20T02:35:59.942Z,8.30
2023-04-20T02:38:27.997Z,8.30
2023-04-20T02:40:56.032Z,8.40
2023-04-20T02:43:24.065Z,8.40
2023-04-20T02:45:52.180Z,8.40
2023-04-20T02:48:20.254Z,8.40
2023-04-20T02:50:49.602Z,8.40
2023-04-20T02:53:17.684Z,8.50
2023-04-20T02:55:45.858Z,8.30
2023-04-20T02:58:14.073Z,8.40
2023-04-20T03:00:43.479Z,8.30
2023-04-20T03:03:17.178Z,8.30
2023-04-20T03:05:47.388Z,8.40
2023-04-20T03:08:17.076Z,8.30
2023-04-20T03:10:45.362Z,8.30
2023-04-20T03:13:13.449Z,8.30
2023-04-20T03:15:42.475Z,8.30
2023-04-20T03:18:10.773Z,8.20
2023-04-20T03:20:38.793Z,8.10
2023-04-20T03:23:06.905Z,8.20
2023-04-20T03:25:36.297Z,8.20
2023-04-20T03:28:07.212Z,8.20
2023-04-20T03:30:35.217Z,8.20
2023-04-20T03:33:03.300Z,8.10
2023-04-20T03:35:31.572Z,8.10
2023-04-20T03:37:59.534Z,8.20
2023-04-20T03:40:27.784Z,8.10
2023-04-20T03:42:57.188Z,8.00
2023-04-20T03:45:25.532Z,8.10
2023-04-20T03:47:53.598Z,8.10
2023-04-20T03:50:21.826Z,8.00
2023-04-20T03:52:49.882Z,8.10
2023-04-20T03:55:17.954Z,8.10
2023-04-20T03:57:46.329Z,8.10
2023-04-20T04:00:18.725Z,8.00
2023-04-20T04:02:48.555Z,8.00
2023-04-20T04:05:28.569Z,8.00
2023-04-20T04:07:56.667Z,8.00
2023-04-20T04:10:24.806Z,8.00
2023-04-20T04:12:52.824Z,8.00
2023-04-20T04:15:22.278Z,8.00
2023-04-20T04:17:50.596Z,8.00
2023-04-20T04:20:18.631Z,7.90
2023-04-20T04:22:46.942Z,7.90
2023-04-20T04:25:15.270Z,7.90
2023-04-20T04:27:43.487Z,7.90
2023-04-20T04:30:12.475Z,7.90
2023-04-20T04:32:44.747Z,7.90
2023-04-20T04:35:12.822Z,7.90
2023-04-20T04:37:42.349Z,7.80
2023-04-20T04:40:11.636Z,7.80
2023-04-20T04:42:39.794Z,7.80
2023-04-20T04:45:10.336Z,7.90
2023-04-20T04:47:38.461Z,7.80
2023-04-20T04:50:09.331Z,7.70
2023-04-20T04:52:37.740Z,7.70
2023-04-20T04:55:08.451Z,7.80
2023-04-20T04:57:38.777Z,7.80
2023-04-20T05:00:09.469Z,7.80
2023-04-20T05:02:37.635Z,7.70
2023-04-20T05:05:09.945Z,7.70
2023-04-20T05:07:41.917Z,7.70
2023-04-20T05:10:09.946Z,7.60
2023-04-20T05:12:38.009Z,7.60
2023-04-20T05:15:08.695Z,7.60
2023-04-20T05:17:36.755Z,7.50
2023-04-20T05:20:06.268Z,7.60
2023-04-20T05:22:34.266Z,7.50
2023-04-20T05:25:03.644Z,7.50
2023-04-20T05:27:31.873Z,7.50
2023-04-20T05:30:09.479Z,7.50
2023-04-20T05:32:50.631Z,7.50
2023-04-20T05:35:19.901Z,7.40
2023-04-20T05:37:48.448Z,7.40
2023-04-20T05:40:17.843Z,7.40
2023-04-20T05:42:45.963Z,7.40
2023-04-20T05:45:17.018Z,7.40
2023-04-20T05:47:53.258Z,7.40
2023-04-20T05:50:21.425Z,7.50
2023-04-20T05:52:49.599Z,7.40
2023-04-20T05:55:21.420Z,7.40
2023-04-20T05:57:52.097Z,7.40
2023-04-20T06:00:21.479Z,7.30
2023-04-20T06:02:51.185Z,7.20
2023-04-20T06:05:19.952Z,7.30
2023-04-20T06:07:48.026Z,7.20
2023-04-20T06:10:16.058Z,7.20
2023-04-20T06:12:45.560Z,7.20
2023-04-20T06:15:16.004Z,7.20
2023-04-20T06:17:44.082Z,7.20
2023-04-20T06:20:12.606Z,7.10
2023-04-20T06:22:43.618Z,7.10
2023-04-20T06:25:11.703Z,8.70
2023-04-20T06:27:39.766Z,7.30
2023-04-20T06:30:09.926Z,7.30
2023-04-20T06:32:38.297Z,7.40
2023-04-20T06:35:07.007Z,7.40
2023-04-20T06:37:36.184Z,7.30
2023-04-20T06:40:05.540Z,7.30
2023-04-20T06:42:33.531Z,7.40
2023-04-20T06:45:01.554Z,7.30
2023-04-20T06:47:33.654Z,7.30
2023-04-20T06:50:02.341Z,7.30
2023-04-20T06:52:31.163Z,7.30
2023-04-20T06:54:59.541Z,7.20
2023-04-20T06:57:27.578Z,7.30
2023-04-20T06:59:55.650Z,7.30
2023-04-20T07:02:23.771Z,7.40
2023-04-20T07:04:53.385Z,7.40
2023-04-20T07:07:21.465Z,7.50
2023-04-20T07:09:49.671Z,7.50
2023-04-20T07:12:17.676Z,7.50
2023-04-20T07:14:45.729Z,7.50
2023-04-20T07:17:13.676Z,7.50
2023-04-20T07:19:41.704Z,7.50
2023-04-20T07:22:11.078Z,7.40
2023-04-20T07:24:39.360Z,7.40
2023-04-20T07:27:08.482Z,7.40
2023-04-20T07:29:36.578Z,7.40
2023-04-20T07:32:04.747Z,7.40
2023-04-20T07:34:32.779Z,7.50
2023-04-20T07:37:00.951Z,7.40
2023-04-20T07:39:30.331Z,7.30
2023-04-20T07:41:58.359Z,7.40
2023-04-20T07:44:26.395Z,7.50
2023-04-20T07:46:54.877Z,7.50
2023-04-20T07:49:22.985Z,7.50
2023-04-20T07:51:51.028Z,7.50
2023-04-20T07:54:19.128Z,7.40
2023-04-20T07:56:48.586Z,7.50
2023-04-20T07:59:17.032Z,7.50
2023-04-20T08:01:46.478Z,7.50
2023-04-20T08:04:14.742Z,7.50
2023-04-20T08:06:43.198Z,7.60
2023-04-20T08:09:13.081Z,7.60
2023-04-20T08:11:41.589Z,7.50
2023-04-20T08:14:10.979Z,7.50
2023-04-20T08:16:39.975Z,7.50
2023-04-20T08:19:10.225Z,7.60
2023-04-20T08:21:38.341Z,7.60
2023-04-20T08:24:07.101Z,7.70
2023-04-20T08:26:35.350Z,7.70
2023-04-20T08:29:03.971Z,7.60
2023-04-20T08:31:33.646Z,7.70
2023-04-20T08:34:01.966Z,7.70
2023-04-20T08:36:30.130Z,7.70
2023-04-20T08:38:58.869Z,7.70
2023-04-20T08:41:26.979Z,7.70
2023-04-20T08:43:55.038Z,7.70
2023-04-20T08:46:23.850Z,7.80
2023-04-20T08:48:55.752Z,7.90
2023-04-20T08:51:25.610Z,7.90
2023-04-20T08:53:54.099Z,7.90
2023-04-20T08:56:22.121Z,8.00
2023-04-20T08:58:50.240Z,7.90
2023-04-20T09:01:34.826Z,8.00
2023-04-20T09:04:15.927Z,8.00
2023-04-20T09:06:50.450Z,8.00
2023-04-20T09:09:18.701Z,8.00
2023-04-20T09:11:47.100Z,7.90
2023-04-20T09:14:16.610Z,7.90
2023-04-20T09:16:52.122Z,7.90
2023-04-20T09:19:25.380Z,8.00
2023-04-20T09:21:54.344Z,8.00
2023-04-20T09:24:22.751Z,8.10
2023-04-20T09:26:50.986Z,8.10
2023-04-20T09:29:19.864Z,8.10
2023-04-20T09:31:48.288Z,8.10
2023-04-20T09:34:16.857Z,8.10
2023-04-20T09:36:47.074Z,8.10
2023-04-20T09:39:15.620Z,8.20
2023-04-20T09:41:44.057Z,8.10
2023-04-20T09:44:12.774Z,8.10
2023-04-20T09:46:41.505Z,8.10
2023-04-20T09:49:10.463Z,7.90
2023-04-20T09:51:41.560Z,8.00
2023-04-20T09:54:11.508Z,8.00
2023-04-20T09:56:39.818Z,8.10
2023-04-20T09:59:09.990Z,8.10
2023-04-20T10:01:38.631Z,8.10
2023-04-20T10:04:08.358Z,8.10
2023-04-20T10:06:37.265Z,8.00
2023-04-20T10:09:06.164Z,8.10
2023-04-20T10:11:48.892Z,8.10
2023-04-20T10:14:23.070Z,8.10
2023-04-20T10:17:00.142Z,8.10
2023-04-20T10:19:37.397Z,8.20
2023-04-20T10:22:05.472Z,8.20
2023-04-20T10:24:35.881Z,8.20
2023-04-20T10:27:05.804Z,8.20
2023-04-20T10:29:35.921Z,8.20
2023-04-20T10:32:04.516Z,8.20
2023-04-20T10:34:32.877Z,8.30
2023-04-20T10:37:11.624Z,8.20
2023-04-20T10:39:45.020Z,8.10
2023-04-20T10:42:16.660Z,8.10
2023-04-20T10:44:49.078Z,8.00
2023-04-20T10:47:29.542Z,8.00
2023-04-20T10:50:06.525Z,8.10
2023-04-20T10:52:35.967Z,8.20
2023-04-20T10:55:04.553Z,8.40
2023-04-20T10:57:33.988Z,8.70
2023-04-20T11:00:16.446Z,8.90
2023-04-20T11:02:49.980Z,9.20
2023-04-20T11:05:18.865Z,9.50
2023-04-20T11:07:52.535Z,9.70
2023-04-20T11:10:20.872Z,9.90
2023-04-20T11:12:51.125Z,10.10
2023-04-20T11:15:19.278Z,10.20
2023-04-20T11:17:47.523Z,10.40
2023-04-20T11:20:17.603Z,10.40
2023-04-20T11:22:46.036Z,10.40
2023-04-20T11:25:14.039Z,10.40
2023-04-20T11:27:43.069Z,10.50
2023-04-20T11:30:12.826Z,10.50
2023-04-20T11:32:41.136Z,10.60
2023-04-20T11:35:11.216Z,12.10
2023-04-20T11:37:47.421Z,11.00
2023-04-20T11:40:15.516Z,11.00
2023-04-20T11:42:43.618Z,11.10
2023-04-20T11:45:13.585Z,11.20
2023-04-20T11:47:42.054Z,11.30
2023-04-20T11:50:10.408Z,11.30
2023-04-20T11:52:38.488Z,11.20
2023-04-20T11:55:06.965Z,11.10
2023-04-20T11:57:34.988Z,11.10
2023-04-20T12:00:04.336Z,11.30
2023-04-20T12:02:34.252Z,11.50
2023-04-20T12:05:11.241Z,11.50
2023-04-20T12:07:39.380Z,11.80
2023-04-20T12:10:08.371Z,11.80
2023-04-20T12:12:37.130Z,11.90
2023-04-20T12:15:05.584Z,12.00
2023-04-20T12:17:35.740Z,11.20
2023-04-20T12:20:05.171Z,12.40
2023-04-20T12:22:33.169Z,12.40
2023-04-20T12:25:01.488Z,12.70
2023-04-20T12:27:29.473Z,13.00
2023-04-20T12:29:57.467Z,13.30
2023-04-20T12:32:25.499Z,13.50
2023-04-20T12:34:54.872Z,13.70
2023-04-20T12:37:23.024Z,13.80
2023-04-20T12:39:51.327Z,13.80
2023-04-20T12:42:19.489Z,13.90
2023-04-20T12:44:47.500Z,13.90
2023-04-20T12:47:15.750Z,13.80
2023-04-20T12:49:43.810Z,14.10
2023-04-20T12:52:13.169Z,14.00
2023-04-20T12:54:43.888Z,14.40
2023-04-20T12:57:14.722Z,14.60
2023-04-20T12:59:42.992Z,14.80
2023-04-20T13:02:11.051Z,14.70
2023-04-20T13:04:39.222Z,14.90
2023-04-20T13:07:08.027Z,15.00
2023-04-20T13:09:37.469Z,14.90
2023-04-20T13:12:05.574Z,15.00
2023-04-20T13:14:33.601Z,14.90
2023-04-20T13:17:02.618Z,15.10
2023-04-20T13:19:30.785Z,15.40
2023-04-20T13:21:58.925Z,15.40
2023-04-20T13:24:27.546Z,15.20
2023-04-20T13:26:59.748Z,14.90
2023-04-20T13:29:28.033Z,14.60
2023-04-20T13:31:56.814Z,14.50
2023-04-20T13:34:25.093Z,14.50
2023-04-20T13:36:53.169Z,14.40
2023-04-20T13:39:22.001Z,14.30
2023-04-20T13:41:50.376Z,14.10
2023-04-20T13:44:25.818Z,14.00
2023-04-20T13:46:53.909Z,13.80
2023-04-20T13:49:22.959Z,13.70
2023-04-20T13:51:51.355Z,13.60
2023-04-20T13:54:19.682Z,13.60
2023-04-20T13:56:47.834Z,13.50
2023-04-20T13:59:16.713Z,13.40
2023-04-20T14:01:46.204Z,13.10
2023-04-20T14:04:16.912Z,12.80
2023-04-20T14:06:47.917Z,12.80
2023-04-20T14:09:19.370Z,12.80
2023-04-20T14:11:48.502Z,12.80
2023-04-20T14:14:17.872Z,12.90
2023-04-20T14:16:48.399Z,12.90
2023-04-20T14:19:16.704Z,12.90
2023-04-20T14:21:46.602Z,12.90
2023-04-20T14:24:14.897Z,12.80
2023-04-20T14:26:43.883Z,12.70
2023-04-20T14:29:13.258Z,12.70
2023-04-20T14:31:44.381Z,12.70
2023-04-20T14:34:14.222Z,12.50
2023-04-20T14:36:42.202Z,12.40
2023-04-20T14:39:10.580Z,12.30
2023-04-20T14:41:41.281Z,12.30
2023-04-20T14:44:11.949Z,12.30
2023-04-20T14:46:42.525Z,12.20
2023-04-20T14:49:11.219Z,12.20
2023-04-20T14:51:40.974Z,12.30
2023-04-20T14:54:09.002Z,12.20
2023-04-20T14:56:37.030Z,12.10
2023-04-20T14:59:05.065Z,11.90
2023-04-20T15:01:33.111Z,12.00
2023-04-20T15:04:02.262Z,11.90
2023-04-20T15:06:30.591Z,11.80
2023-04-20T15:08:59.975Z,11.80
2023-04-20T15:11:27.986Z,11.80
2023-04-20T15:13:56.051Z,11.80
2023-04-20T15:16:24.151Z,11.80
2023-04-20T15:18:53.003Z,11.60
2023-04-20T15:21:21.253Z,11.60
2023-04-20T15:23:52.653Z,11.60
2023-04-20T15:26:22.330Z,11.60
2023-04-20T15:28:50.991Z,11.60
2023-04-20T15:31:19.722Z,11.50
2023-04-20T15:33:48.021Z,11.20
2023-04-20T15:36:18.564Z,11.10
2023-04-20T15:38:46.618Z,11.10
2023-04-20T15:41:16.337Z,11.10
2023-04-20T15:43:45.728Z,11.00
2023-04-20T15:46:13.864Z,11.00
2023-04-20T15:48:43.225Z,10.70
2023-04-20T15:51:11.225Z,10.70
2023-04-20T15:53:39.358Z,10.60
2023-04-20T15:56:07.482Z,10.70
2023-04-20T15:58:35.624Z,10.60
2023-04-20T16:01:05.178Z,10.60
2023-04-20T16:03:33.300Z,10.60
2023-04-20T16:06:01.486Z,10.60
2023-04-20T16:08:29.519Z,10.60
2023-04-20T16:10:57.611Z,10.60
2023-04-20T16:13:26.149Z,10.60
2023-04-20T16:15:54.274Z,10.60
2023-04-20T16:18:24.311Z,10.60
2023-04-20T16:20:52.329Z,10.60
2023-04-20T16:23:20.728Z,10.60
2023-04-20T16:25:48.784Z,10.50
2023-04-20T16:28:16.904Z,10.40
2023-04-20T16:30:45.629Z,10.30
2023-04-20T16:33:14.173Z,10.40
2023-04-20T16:35:43.561Z,10.40
2023-04-20T16:38:11.541Z,10.40
2023-04-20T16:40:39.547Z,10.30
2023-04-20T16:43:10.398Z,10.20
2023-04-20T16:45:39.010Z,10.30
2023-04-20T16:48:08.318Z,10.20
2023-04-20T16:50:40.921Z,10.30
2023-04-20T16:53:11.658Z,10.20
2023-04-20T16:55:39.751Z,10.00
2023-04-20T16:58:07.787Z,8.90
2023-04-20T17:00:36.070Z,10.10
2023-04-20T17:03:06.754Z,10.00
2023-04-20T17:05:41.496Z,10.00
2023-04-20T17:08:11.432Z,10.00
2023-04-20T17:10:39.464Z,10.00
2023-04-20T17:13:07.580Z,10.00
2023-04-20T17:15:35.570Z,10.00
2023-04-20T17:18:04.555Z,10.00
2023-04-20T17:20:32.756Z,10.10
2023-04-20T17:23:00.843Z,10.00
2023-04-20T17:25:30.263Z,10.10
2023-04-20T17:28:03.633Z,10.00
2023-04-20T17:30:31.686Z,10.10
2023-04-20T17:33:00.775Z,10.00
2023-04-20T17:35:28.791Z,10.00
2023-04-20T17:37:56.853Z,10.00
2023-04-20T17:40:24.878Z,10.10
2023-04-20T17:42:54.329Z,10.10
2023-04-20T17:45:22.475Z,10.10
2023-04-20T17:47:50.520Z,10.10
2023-04-20T17:50:18.604Z,10.10
2023-04-20T17:52:46.692Z,11.20
2023-04-20T17:55:14.953Z,10.00
2023-04-20T17:57:42.910Z,10.00
2023-04-20T18:00:13.330Z,10.00
2023-04-20T18:02:41.649Z,10.00
2023-04-20T18:05:09.922Z,10.00
2023-04-20T18:07:37.992Z,10.00
2023-04-20T18:10:06.420Z,10.10
2023-04-20T18:12:34.549Z,10.10
2023-04-20T18:15:02.612Z,10.10
2023-04-20T18:17:32.071Z,10.10
2023-04-20T18:20:00.278Z,10.00
2023-04-20T18:22:28.300Z,10.10
2023-04-20T18:24:56.352Z,10.10
2023-04-20T18:27:24.377Z,10.10
2023-04-20T18:29:53.567Z,10.10
2023-04-20T18:32:21.592Z,10.10
2023-04-20T18:34:51.878Z,10.10
2023-04-20T18:37:20.027Z,10.10
2023-04-20T18:39:48.086Z,10.10
2023-04-20T18:42:16.310Z,10.10
2023-04-20T18:44:44.338Z,10.10
2023-04-20T18:47:15.036Z,10.00
2023-04-20T18:49:43.294Z,10.00
2023-04-20T18:52:13.672Z,10.10
2023-04-20T18:54:41.744Z,10.10
2023-04-20T18:57:09.883Z,10.10
2023-04-20T18:59:37.990Z,10.10
2023-04-20T19:02:06.270Z,10.10
2023-04-20T19:04:36.254Z,10.10
2023-04-20T19:07:04.329Z,10.00
2023-04-20T19:09:33.760Z,10.10
2023-04-20T19:12:02.203Z,10.00
2023-04-20T19:14:30.317Z,10.00
2023-04-20T19:16:58.533Z,10.00
2023-04-20T19:19:26.758Z,10.00
2023-04-20T19:21:54.932Z,10.10
2023-04-20T19:24:23.042Z,10.00
2023-04-20T19:26:52.453Z,10.10
2023-04-20T19:29:20.589Z,10.10
2023-04-20T19:31:48.653Z,10.10
2023-04-20T19:34:16.904Z,10.10
2023-04-20T19:36:45.284Z,10.10
2023-04-20T19:39:13.636Z,10.00
2023-04-20T19:41:41.650Z,10.00
2023-04-20T19:44:12.123Z,10.00
2023-04-20T19:46:40.794Z,10.00
2023-04-20T19:49:08.906Z,10.00
2023-04-20T19:51:36.892Z,9.90
2023-04-20T19:54:05.209Z,9.90
2023-04-20T19:56:33.715Z,10.00
2023-04-20T19:59:01.831Z,9.90
2023-04-20T20:01:31.258Z,9.90
2023-04-20T20:04:01.057Z,9.90
2023-04-20T20:06:29.411Z,9.80
2023-04-20T20:08:57.436Z,9.80
2023-04-20T20:11:25.706Z,9.80
2023-04-20T20:13:53.704Z,9.80
2023-04-20T20:16:22.014Z,9.80
2023-04-20T20:18:51.733Z,9.80
2023-04-20T20:21:19.737Z,9.80
2023-04-20T20:23:47.826Z,9.70
2023-04-20T20:26:15.992Z,9.70
2023-04-20T20:28:44.305Z,9.70
2023-04-20T20:31:18.366Z,9.70
2023-04-20T20:33:49.445Z,9.70
2023-04-20T20:36:18.951Z,9.70
2023-04-20T20:38:47.280Z,9.60
2023-04-20T20:41:16.374Z,9.60
2023-04-20T20:43:45.767Z,9.60
2023-04-20T20:46:14.040Z,9.50
2023-04-20T20:48:42.137Z,9.50
2023-04-20T20:51:12.801Z,9.50
2023-04-20T20:53:42.229Z,9.50
2023-04-20T20:56:10.322Z,9.40
2023-04-20T20:58:38.291Z,9.40
2023-04-20T21:01:15.586Z,9.40
2023-04-20T21:03:43.807Z,9.40
2023-04-20T21:06:11.924Z,9.30
2023-04-20T21:08:42.256Z,9.30
2023-04-20T21:11:11.626Z,9.30
2023-04-20T21:13:39.712Z,9.30
2023-04-20T21:16:07.840Z,9.30
2023-04-20T21:18:35.932Z,9.30
2023-04-20T21:21:06.061Z,9.30
2023-04-20T21:23:37.412Z,9.20
2023-04-20T21:26:05.660Z,9.20
2023-04-20T21:28:35.405Z,9.20
2023-04-20T21:31:03.487Z,9.20
2023-04-20T21:33:31.621Z,9.20
2023-04-20T21:36:00.911Z,9.20
2023-04-20T21:38:32.802Z,9.20
2023-04-20T21:41:00.875Z,9.20
2023-04-20T21:43:29.006Z,9.20
2023-04-20T21:45:59.633Z,9.20
2023-04-20T21:48:27.653Z,9.20
2023-04-20T21:50:55.622Z,9.20
2023-04-20T21:53:23.673Z,9.10
2023-04-20T21:55:51.656Z,9.10
2023-04-20T21:58:19.812Z,9.10
2023-04-20T22:00:58.095Z,9.10
2023-04-20T22:03:29.274Z,9.10
2023-04-20T22:05:57.668Z,9.10
2023-04-20T22:08:25.735Z,9.10
2023-04-20T22:11:02.762Z,9.10
2023-04-20T22:13:30.725Z,9.10
2023-04-20T22:16:02.406Z,9.10
2023-04-20T22:18:30.569Z,9.20
2023-04-20T22:21:01.049Z,9.20
2023-04-20T22:23:29.052Z,9.20
2023-04-20T22:25:59.002Z,9.10
2023-04-20T22:28:30.175Z,9.10
2023-04-20T22:30:58.247Z,9.10
2023-04-20T22:33:34.963Z,9.10
2023-04-20T22:36:03.356Z,9.00
2023-04-20T22:38:31.616Z,9.00
2023-04-20T22:40:59.728Z,9.00
2023-04-20T22:43:27.777Z,8.90
2023-04-20T22:45:58.584Z,9.00
2023-04-20T22:48:27.938Z,8.90
2023-04-20T22:51:00.614Z,8.90
2023-04-20T22:53:29.858Z,8.90
2023-04-20T22:56:03.365Z,8.90
2023-04-20T22:58:31.382Z,8.80
2023-04-20T23:00:59.470Z,8.80
2023-04-20T23:03:29.097Z,8.80
2023-04-20T23:05:57.631Z,8.80
2023-04-20T23:08:26.220Z,8.70
2023-04-20T23:10:54.792Z,8.70
2023-04-20T23:13:24.654Z,8.70
2023-04-20T23:15:52.773Z,8.60
2023-04-20T23:18:20.959Z,8.60
2023-04-20T23:20:50.579Z,8.60
2023-04-20T23:23:18.618Z,8.60
2023-04-20T23:25:46.620Z,8.60
2023-04-20T23:28:14.718Z,8.50
2023-04-20T23:30:42.765Z,8.60
2023-04-20T23:33:10.919Z,8.60
2023-04-20T23:35:38.996Z,8.40
2023-04-20T23:38:08.603Z,8.40
2023-04-20T23:40:36.727Z,8.40
2023-04-20T23:43:04.734Z,8.40
2023-04-20T23:45:35.784Z,8.40
2023-04-20T23:48:08.612Z,8.40
2023-04-20T23:50:37.010Z,8.30
2023-04-20T23:53:05.829Z,8.30
2023-04-20T23:55:35.269Z,8.30
2023-04-20T23:58:03.356Z,8.30
